Time;durP1;ratioP1;P1;durP2;ratioP2;P2;SDS_P1;SDS_P2;PMS_P1;PMS_P2;Temp;Humidity;BMP_temperature;BMP_pressure;BME280_temperature;BME280_humidity;BME280_pressure;Samples;Min_cycle;Max_cycle;Signal;HPM_P1;HPM_P2
2023/06/01 00:01:49;;;;;;;11.23;3.90;;;11.50;99.90;;;;;;5026008;28;20033;-80
2023/06/01 00:04:14;;;;;;;9.80;4.47;;;11.50;99.90;;;;;;5028733;28;20029;-80
2023/06/01 00:06:40;;;;;;;11.98;4.32;;;11.40;99.90;;;;;;5028552;28;20033;-81
2023/06/01 00:09:07;;;;;;;11.77;3.97;;;11.40;99.90;;;;;;5024822;28;20041;-80
2023/06/01 00:11:32;;;;;;;10.50;4.18;;;11.40;99.90;;;;;;5026761;28;20059;-80
2023/06/01 00:13:58;;;;;;;8.93;3.65;;;11.40;99.90;;;;;;5026370;28;20038;-80
2023/06/01 00:16:23;;;;;;;10.43;4.10;;;11.40;99.90;;;;;;5026770;28;20562;-81
2023/06/01 00:18:52;;;;;;;13.20;4.72;;;11.50;99.90;;;;;;5024828;28;20045;-81
2023/06/01 00:21:18;;;;;;;11.15;5.03;;;11.40;99.90;;;;;;5024492;28;20050;-80
2023/06/01 00:23:44;;;;;;;8.27;3.78;;;11.40;99.90;;;;;;5028826;28;20049;-79
2023/06/01 00:26:10;;;;;;;15.60;4.60;;;11.40;99.90;;;;;;5030542;28;20041;-80
2023/06/01 00:28:35;;;;;;;11.70;4.35;;;11.30;99.90;;;;;;5034331;28;20041;-81
2023/06/01 00:31:01;;;;;;;12.38;4.90;;;11.40;99.90;;;;;;5034634;28;20683;-80
2023/06/01 00:33:27;;;;;;;19.95;4.85;;;11.30;99.90;;;;;;5034070;28;21095;-80
2023/06/01 00:35:52;;;;;;;12.73;4.38;;;11.30;99.90;;;;;;5033545;28;20443;-80
2023/06/01 00:38:18;;;;;;;12.75;4.65;;;11.30;99.90;;;;;;5031120;28;20038;-81
2023/06/01 00:40:44;;;;;;;13.73;5.22;;;11.20;99.90;;;;;;5033293;28;20470;-81
2023/06/01 00:43:10;;;;;;;11.43;4.63;;;11.20;99.90;;;;;;5033129;28;20049;-81
2023/06/01 00:45:37;;;;;;;18.77;5.38;;;11.20;99.90;;;;;;5032286;28;20080;-80
2023/06/01 00:48:03;;;;;;;13.07;4.43;;;11.20;99.90;;;;;;5031235;28;20049;-80
2023/06/01 00:50:30;;;;;;;12.57;4.43;;;11.20;99.90;;;;;;5029577;28;20045;-80
2023/06/01 00:52:58;;;;;;;9.20;5.00;;;11.10;99.90;;;;;;5032717;28;20037;-79
2023/06/01 00:55:24;;;;;;;10.77;4.75;;;11.20;99.90;;;;;;5034082;28;20049;-80
2023/06/01 00:57:50;;;;;;;12.38;4.82;;;11.10;99.90;;;;;;5032364;28;20101;-81
2023/06/01 01:00:17;;;;;;;11.50;5.03;;;11.10;99.90;;;;;;5030038;28;20046;-81
2023/06/01 01:02:48;;;;;;;10.68;4.72;;;11.20;99.90;;;;;;5028291;28;20459;-81
2023/06/01 01:05:15;;;;;;;12.35;4.47;;;11.10;99.90;;;;;;5033794;28;20049;-81
2023/06/01 01:07:41;;;;;;;9.73;5.07;;;11.10;99.90;;;;;;5032456;28;20408;-80
2023/06/01 01:10:21;;;;;;;11.70;4.88;;;11.20;99.90;;;;;;5031572;28;20051;-80
2023/06/01 01:13:07;;;;;;;11.05;4.43;;;11.20;99.90;;;;;;5032682;28;20807;-81
2023/06/01 01:15:48;;;;;;;12.25;4.28;;;11.20;99.90;;;;;;5031879;28;20046;-80
2023/06/01 01:18:32;;;;;;;14.32;5.07;;;11.20;99.90;;;;;;5033582;28;20046;-80
2023/06/01 01:21:00;;;;;;;11.23;5.40;;;11.20;99.90;;;;;;5032289;28;20099;-79
2023/06/01 01:24:02;;;;;;;16.17;4.13;;;11.20;99.90;;;;;;5033003;28;20069;-80
2023/06/01 01:26:45;;;;;;;13.98;4.90;;;11.30;99.90;;;;;;5031919;28;20092;-80
2023/06/01 01:29:15;;;;;;;15.30;4.28;;;11.30;99.90;;;;;;5030957;28;20046;-80
2023/06/01 01:31:41;;;;;;;9.98;4.20;;;11.40;99.90;;;;;;5028674;28;20041;-79
2023/06/01 01:34:08;;;;;;;7.50;3.47;;;11.30;99.90;;;;;;5028924;28;20065;-79
2023/06/01 01:36:35;;;;;;;15.43;3.95;;;11.30;99.90;;;;;;5030392;28;20052;-80
2023/06/01 01:39:02;;;;;;;10.55;4.30;;;11.30;99.90;;;;;;5028852;28;20104;-80
2023/06/01 01:41:27;;;;;;;8.73;3.78;;;11.30;99.90;;;;;;5028973;28;20046;-80
2023/06/01 01:43:53;;;;;;;10.18;4.10;;;11.40;99.90;;;;;;5028373;28;20134;-79
2023/06/01 01:46:27;;;;;;;14.02;4.13;;;11.30;99.90;;;;;;5025997;28;20045;-80
2023/06/01 01:49:17;;;;;;;13.90;4.70;;;11.30;99.90;;;;;;5026542;28;20131;-80
2023/06/01 01:51:53;;;;;;;9.82;4.47;;;11.30;99.90;;;;;;5028990;28;20049;-80
2023/06/01 01:54:20;;;;;;;10.18;4.78;;;11.30;99.90;;;;;;5029584;28;20041;-80
2023/06/01 01:56:48;;;;;;;10.20;4.00;;;11.30;99.90;;;;;;5029510;28;20069;-80
2023/06/01 01:59:15;;;;;;;12.82;4.10;;;11.30;99.90;;;;;;5027740;28;20038;-80
2023/06/01 02:01:44;;;;;;;11.43;4.68;;;11.30;99.90;;;;;;5028358;28;20029;-79
2023/06/01 02:04:10;;;;;;;11.02;4.03;;;11.20;99.90;;;;;;5029113;28;20496;-80
2023/06/01 02:06:36;;;;;;;12.20;4.22;;;11.20;99.90;;;;;;5029590;28;20459;-80
2023/06/01 02:09:06;;;;;;;11.20;3.58;;;11.20;99.90;;;;;;5027581;28;20123;-80
2023/06/01 02:11:32;;;;;;;12.07;4.57;;;11.20;99.90;;;;;;5038562;28;20088;-80
2023/06/01 02:13:58;;;;;;;9.27;3.70;;;11.20;99.90;;;;;;5029496;28;20049;-79
2023/06/01 02:16:23;;;;;;;9.35;3.90;;;11.20;99.90;;;;;;5027511;28;20037;-80
2023/06/01 02:18:50;;;;;;;11.70;3.58;;;11.20;99.90;;;;;;5027586;28;20057;-80
2023/06/01 02:21:15;;;;;;;9.90;3.85;;;11.20;99.90;;;;;;5011375;28;20041;-80
2023/06/01 02:23:42;;;;;;;14.70;4.00;;;11.10;99.90;;;;;;5028978;28;20550;-81
2023/06/01 02:26:08;;;;;;;11.65;4.28;;;11.20;99.90;;;;;;5028849;28;20037;-81
2023/06/01 02:28:35;;;;;;;8.88;4.05;;;11.20;99.90;;;;;;5029282;28;20720;-80
2023/06/01 02:31:01;;;;;;;16.17;5.30;;;11.20;99.90;;;;;;5025693;28;20045;-81
2023/06/01 02:33:27;;;;;;;12.35;4.70;;;11.20;99.90;;;;;;5027296;28;21527;-79
2023/06/01 02:35:53;;;;;;;11.18;4.90;;;11.10;99.90;;;;;;5026982;28;20075;-80
2023/06/01 02:38:18;;;;;;;14.65;5.63;;;11.20;99.90;;;;;;5028070;28;20049;-80
2023/06/01 02:40:44;;;;;;;20.85;6.82;;;11.10;99.90;;;;;;5028313;28;20683;-80
2023/06/01 02:43:09;;;;;;;9.63;3.80;;;11.10;99.90;;;;;;5029067;28;20076;-80
2023/06/01 02:45:38;;;;;;;13.05;4.43;;;11.20;99.90;;;;;;5027577;28;20164;-80
2023/06/01 02:48:04;;;;;;;9.32;4.53;;;11.50;99.90;;;;;;5026885;28;20898;-79
2023/06/01 02:50:29;;;;;;;9.80;4.20;;;11.10;99.90;;;;;;5026884;28;20049;-80
2023/06/01 02:52:55;;;;;;;9.05;4.05;;;11.10;99.90;;;;;;5027919;28;20152;-80
2023/06/01 02:55:21;;;;;;;8.02;3.97;;;11.10;99.90;;;;;;5029067;28;20041;-80
2023/06/01 02:57:46;;;;;;;8.52;3.83;;;11.10;99.90;;;;;;5028844;28;20132;-81
2023/06/01 03:00:18;;;;;;;9.05;3.60;;;11.00;99.90;;;;;;5026490;28;20049;-81
2023/06/01 03:02:45;;;;;;;7.18;4.10;;;11.10;99.90;;;;;;5024707;28;20071;-80
2023/06/01 03:05:14;;;;;;;9.00;3.85;;;11.10;99.90;;;;;;5028788;28;20041;-81
2023/06/01 03:07:40;;;;;;;10.02;4.03;;;11.20;99.90;;;;;;5027091;28;20041;-80
2023/06/01 03:10:07;;;;;;;7.55;4.22;;;11.10;99.90;;;;;;5023895;28;20060;-80
2023/06/01 03:12:33;;;;;;;12.00;4.53;;;11.10;99.90;;;;;;5029088;28;20038;-81
2023/06/01 03:14:58;;;;;;;11.35;4.13;;;11.10;99.90;;;;;;5027093;28;20107;-80
2023/06/01 03:17:24;;;;;;;14.55;4.15;;;11.10;99.90;;;;;;5023412;28;20045;-80
2023/06/01 03:19:49;;;;;;;8.20;3.65;;;11.10;99.90;;;;;;5025053;28;20030;-81
2023/06/01 03:22:15;;;;;;;9.63;4.15;;;11.10;99.90;;;;;;5024550;28;20038;-80
2023/06/01 03:24:41;;;;;;;12.60;4.50;;;11.20;99.90;;;;;;5027648;28;20083;-80
2023/06/01 03:27:07;;;;;;;7.05;3.67;;;11.20;99.90;;;;;;5025505;28;20095;-80
2023/06/01 03:29:33;;;;;;;7.88;3.70;;;11.20;99.90;;;;;;5022396;28;20052;-80
2023/06/01 03:31:59;;;;;;;10.57;3.95;;;11.20;99.90;;;;;;5024139;28;20030;-80
2023/06/01 03:34:27;;;;;;;9.00;3.88;;;11.10;99.90;;;;;;5026097;28;20518;-80
2023/06/01 03:36:53;;;;;;;7.38;2.90;;;11.20;99.90;;;;;;5025205;28;20084;-80
2023/06/01 03:39:19;;;;;;;7.38;3.28;;;11.20;99.90;;;;;;5025683;28;20041;-80
2023/06/01 03:41:44;;;;;;;9.73;3.15;;;11.10;99.90;;;;;;5027757;28;20029;-80
2023/06/01 03:44:11;;;;;;;8.77;2.78;;;11.20;99.90;;;;;;5025809;28;20030;-80
2023/06/01 03:46:37;;;;;;;7.20;2.72;;;11.20;99.90;;;;;;5025795;28;20053;-80
2023/06/01 03:49:02;;;;;;;7.32;3.30;;;11.20;99.90;;;;;;5026491;28;20041;-80
2023/06/01 03:51:28;;;;;;;8.50;2.78;;;11.20;99.90;;;;;;5024725;28;20064;-80
2023/06/01 03:53:54;;;;;;;8.40;3.05;;;11.30;99.90;;;;;;5026454;28;20456;-80
2023/06/01 03:56:20;;;;;;;7.55;2.80;;;11.20;99.90;;;;;;5022772;28;20188;-80
2023/06/01 03:58:46;;;;;;;5.68;2.53;;;11.30;99.90;;;;;;5022219;28;20033;-80
2023/06/01 04:01:16;;;;;;;5.63;2.33;;;11.20;99.90;;;;;;5021037;28;20048;-80
2023/06/01 04:03:45;;;;;;;10.60;3.35;;;11.30;99.90;;;;;;5022307;28;20091;-79
2023/06/01 04:06:17;;;;;;;10.38;2.53;;;11.30;99.90;;;;;;5024713;28;20118;-82
2023/06/01 04:08:49;;;;;;;6.07;3.08;;;11.30;99.90;;;;;;5034463;28;20041;-81
2023/06/01 04:11:18;;;;;;;5.38;2.80;;;11.40;99.90;;;;;;5026572;28;20040;-81
2023/06/01 04:13:44;;;;;;;9.00;2.92;;;11.30;99.90;;;;;;5021942;28;20041;-81
2023/06/01 04:16:10;;;;;;;6.90;3.35;;;11.40;99.90;;;;;;5023993;28;20538;-80
2023/06/01 04:18:36;;;;;;;6.75;3.42;;;11.40;99.90;;;;;;5021873;28;20132;-80
2023/06/01 04:21:02;;;;;;;7.63;2.90;;;11.40;99.90;;;;;;5021481;28;20088;-81
2023/06/01 04:23:27;;;;;;;10.40;3.92;;;11.40;99.90;;;;;;5021129;28;20492;-81
2023/06/01 04:25:53;;;;;;;12.52;3.72;;;11.40;99.90;;;;;;5026634;28;20029;-80
2023/06/01 04:28:20;;;;;;;10.60;3.55;;;11.40;99.90;;;;;;5024786;28;20050;-81
2023/06/01 04:30:47;;;;;;;6.03;3.13;;;11.50;99.90;;;;;;5025712;28;20072;-80
2023/06/01 04:33:13;;;;;;;6.55;2.83;;;11.50;99.90;;;;;;5023805;28;20100;-79
2023/06/01 04:35:39;;;;;;;11.00;3.35;;;11.50;99.90;;;;;;5026838;28;20041;-81
2023/06/01 04:38:05;;;;;;;15.15;3.10;;;11.50;99.90;;;;;;5027399;28;20044;-80
2023/06/01 04:40:31;;;;;;;14.50;3.65;;;11.50;99.90;;;;;;5023146;28;20056;-79
2023/06/01 04:42:56;;;;;;;8.45;3.60;;;11.50;99.90;;;;;;5024784;28;20041;-81
2023/06/01 04:45:25;;;;;;;16.95;3.67;;;11.50;99.90;;;;;;5025761;28;20122;-79
2023/06/01 04:47:51;;;;;;;11.18;3.40;;;11.50;99.90;;;;;;5026276;28;20059;-82
2023/06/01 04:50:17;;;;;;;9.63;3.45;;;11.50;99.90;;;;;;5000281;28;20048;-79
2023/06/01 04:52:44;;;;;;;12.98;3.30;;;11.50;99.90;;;;;;5019246;28;20048;-79
2023/06/01 04:55:11;;;;;;;12.13;3.80;;;11.50;99.90;;;;;;5026463;28;20038;-79
2023/06/01 04:57:38;;;;;;;9.02;3.00;;;11.60;99.90;;;;;;5024425;28;20085;-79
2023/06/01 05:00:10;;;;;;;9.77;4.43;;;11.60;99.90;;;;;;5022045;28;20079;-79
2023/06/01 05:02:37;;;;;;;11.40;3.83;;;11.50;99.90;;;;;;5023257;28;20454;-80
2023/06/01 05:05:04;;;;;;;10.90;3.45;;;11.60;99.90;;;;;;5025691;28;20037;-79
2023/06/01 05:07:30;;;;;;;13.40;3.70;;;11.50;99.90;;;;;;5026806;28;20496;-79
2023/06/01 05:09:55;;;;;;;12.85;3.47;;;11.50;99.90;;;;;;5029553;28;20049;-78
2023/06/01 05:12:21;;;;;;;8.98;3.10;;;11.50;99.90;;;;;;5029257;28;20484;-80
2023/06/01 05:14:47;;;;;;;11.35;3.22;;;11.50;99.90;;;;;;5027606;28;20045;-82
2023/06/01 05:17:12;;;;;;;9.90;3.63;;;11.50;99.90;;;;;;5026957;28;20038;-81
2023/06/01 05:19:38;;;;;;;10.95;4.78;;;11.50;99.90;;;;;;5029332;28;20067;-79
2023/06/01 05:22:03;;;;;;;12.30;4.82;;;11.40;99.90;;;;;;5027062;28;20038;-81
2023/06/01 05:24:29;;;;;;;13.48;3.85;;;11.50;99.90;;;;;;5021696;28;20053;-79
2023/06/01 05:26:55;;;;;;;9.95;3.47;;;11.40;99.90;;;;;;5030130;28;20130;-78
2023/06/01 05:29:21;;;;;;;14.95;4.88;;;11.50;99.90;;;;;;5028553;28;20064;-79
2023/06/01 05:31:48;;;;;;;9.55;3.90;;;11.50;99.90;;;;;;5028949;28;20080;-79
2023/06/01 05:34:14;;;;;;;11.43;4.35;;;11.50;99.90;;;;;;5030418;28;20048;-81
2023/06/01 05:36:39;;;;;;;6.72;3.90;;;11.50;99.90;;;;;;5028314;28;20037;-79
2023/06/01 05:39:05;;;;;;;9.57;3.58;;;11.50;99.90;;;;;;5031311;28;20072;-79
2023/06/01 05:41:31;;;;;;;12.30;3.88;;;11.60;99.90;;;;;;5029576;28;20052;-81
2023/06/01 05:43:57;;;;;;;10.43;4.05;;;11.60;99.90;;;;;;5032488;28;20099;-79
2023/06/01 05:46:24;;;;;;;12.65;4.35;;;11.60;99.90;;;;;;5028515;28;20637;-79
2023/06/01 05:48:51;;;;;;;10.20;4.93;;;11.60;99.90;;;;;;5029850;28;20048;-79
2023/06/01 05:51:17;;;;;;;9.75;3.28;;;11.60;99.90;;;;;;5030150;28;20052;-78
2023/06/01 05:53:44;;;;;;;8.63;4.28;;;11.60;99.90;;;;;;5031764;28;20175;-81
2023/06/01 05:56:09;;;;;;;10.18;3.28;;;11.70;99.90;;;;;;5029639;28;20044;-80
2023/06/01 05:58:35;;;;;;;11.40;3.40;;;11.80;99.90;;;;;;5034128;28;20029;-79
2023/06/01 06:01:01;;;;;;;8.38;3.33;;;11.80;99.90;;;;;;5032464;28;20039;-80
2023/06/01 06:03:27;;;;;;;8.25;3.10;;;11.80;99.90;;;;;;5030119;28;20053;-79
2023/06/01 06:05:53;;;;;;;8.00;4.50;;;11.80;99.90;;;;;;5030671;28;20045;-79
2023/06/01 06:08:18;;;;;;;7.18;3.00;;;11.90;99.90;;;;;;5029911;28;20056;-79
2023/06/01 06:10:44;;;;;;;10.20;3.13;;;11.90;99.90;;;;;;5029828;28;20103;-79
2023/06/01 06:13:10;;;;;;;9.73;2.63;;;11.90;99.90;;;;;;5030657;28;20029;-79
2023/06/01 06:15:36;;;;;;;9.25;3.13;;;11.90;99.90;;;;;;5027202;28;20095;-79
2023/06/01 06:18:01;;;;;;;6.25;2.85;;;11.90;99.90;;;;;;5030538;28;20065;-79
2023/06/01 06:20:27;;;;;;;7.40;2.30;;;12.10;99.90;;;;;;5030936;28;20045;-79
2023/06/01 06:22:52;;;;;;;8.90;2.97;;;12.00;99.90;;;;;;5031071;28;20095;-79
2023/06/01 06:25:19;;;;;;;8.52;2.47;;;12.00;99.90;;;;;;5031654;28;20044;-80
2023/06/01 06:27:45;;;;;;;6.10;2.80;;;12.00;99.90;;;;;;5021226;28;20041;-78
2023/06/01 06:30:11;;;;;;;5.50;2.05;;;12.00;99.90;;;;;;5024773;28;20044;-78
2023/06/01 06:32:36;;;;;;;7.85;2.60;;;12.00;99.90;;;;;;5029595;28;20045;-78
2023/06/01 06:35:02;;;;;;;6.00;2.33;;;12.50;99.90;;;;;;5030217;28;20450;-78
2023/06/01 06:37:29;;;;;;;4.90;2.03;;;12.10;99.90;;;;;;5026480;28;20124;-79
2023/06/01 06:39:55;;;;;;;5.38;2.67;;;12.10;99.90;;;;;;5028332;28;20041;-78
2023/06/01 06:42:21;;;;;;;7.22;2.60;;;12.10;99.90;;;;;;5028182;28;20041;-77
2023/06/01 06:44:47;;;;;;;8.27;2.75;;;12.20;99.90;;;;;;5030397;28;20079;-79
2023/06/01 06:47:15;;;;;;;6.00;2.45;;;12.20;99.90;;;;;;5022628;28;20135;-78
2023/06/01 06:49:41;;;;;;;7.07;2.95;;;12.20;99.90;;;;;;5021144;28;20107;-78
2023/06/01 06:52:08;;;;;;;8.20;2.35;;;12.20;99.90;;;;;;5018198;28;20075;-78
2023/06/01 06:54:35;;;;;;;10.30;3.80;;;12.30;99.90;;;;;;5020237;28;20087;-78
2023/06/01 06:57:00;;;;;;;6.85;2.80;;;12.30;99.90;;;;;;5002468;28;20045;-78
2023/06/01 06:59:26;;;;;;;5.68;2.40;;;12.30;99.90;;;;;;5021771;28;20049;-79
2023/06/01 07:01:52;;;;;;;4.55;2.85;;;12.40;99.90;;;;;;5026097;28;20100;-78
2023/06/01 07:04:17;;;;;;;6.03;3.08;;;12.40;99.90;;;;;;5026525;28;20087;-79
2023/06/01 07:06:43;;;;;;;5.75;2.55;;;12.50;99.90;;;;;;5026898;28;20095;-78
2023/06/01 07:09:09;;;;;;;11.98;3.20;;;12.50;99.90;;;;;;5027435;28;20115;-78
2023/06/01 07:11:35;;;;;;;4.93;2.50;;;12.60;99.90;;;;;;5022721;28;20085;-78
2023/06/01 07:14:01;;;;;;;9.73;3.10;;;12.60;99.90;;;;;;5009365;28;20073;-77
2023/06/01 07:16:28;;;;;;;11.77;4.15;;;12.60;99.90;;;;;;5026158;28;20124;-78
2023/06/01 07:18:53;;;;;;;6.90;2.70;;;12.70;99.90;;;;;;5024770;28;20045;-78
2023/06/01 07:21:19;;;;;;;7.18;2.65;;;12.70;99.90;;;;;;5024650;28;20037;-78
2023/06/01 07:23:46;;;;;;;7.05;2.63;;;12.80;99.90;;;;;;5026891;28;20818;-78
2023/06/01 07:26:11;;;;;;;7.47;3.15;;;12.80;99.90;;;;;;5028104;28;20063;-79
2023/06/01 07:28:37;;;;;;;8.23;2.17;;;12.80;99.90;;;;;;5026810;28;20403;-78
2023/06/01 07:31:03;;;;;;;7.47;2.30;;;12.90;99.90;;;;;;5026517;28;20032;-79
2023/06/01 07:33:29;;;;;;;12.25;3.28;;;12.90;99.90;;;;;;5026272;28;20065;-79
2023/06/01 07:35:57;;;;;;;7.35;2.00;;;13.00;99.90;;;;;;5027173;28;20084;-79
2023/06/01 07:38:23;;;;;;;4.88;2.75;;;13.00;99.90;;;;;;5024718;28;20319;-78
2023/06/01 07:40:51;;;;;;;9.05;2.28;;;13.00;99.90;;;;;;5024626;28;20041;-78
2023/06/01 07:43:16;;;;;;;6.40;2.10;;;13.10;99.90;;;;;;5026847;28;20034;-78
2023/06/01 07:45:42;;;;;;;7.75;2.00;;;13.10;99.90;;;;;;5029117;28;21216;-79
2023/06/01 07:48:08;;;;;;;6.60;1.92;;;13.10;99.90;;;;;;5025666;28;20049;-78
2023/06/01 07:50:33;;;;;;;6.32;2.22;;;13.20;99.90;;;;;;5027561;28;20041;-78
2023/06/01 07:52:59;;;;;;;4.85;2.15;;;13.20;99.90;;;;;;5023895;28;20049;-79
2023/06/01 07:55:25;;;;;;;6.00;1.90;;;13.30;99.90;;;;;;5020555;28;20045;-79
2023/06/01 07:57:52;;;;;;;5.93;1.80;;;13.40;99.90;;;;;;5020166;28;20034;-78
2023/06/01 08:00:18;;;;;;;6.00;2.17;;;13.40;99.90;;;;;;5026527;28;20045;-79
2023/06/01 08:02:44;;;;;;;3.35;1.52;;;13.50;99.90;;;;;;5020399;28;20072;-78
2023/06/01 08:05:11;;;;;;;7.43;2.53;;;13.50;99.90;;;;;;5019507;28;20041;-78
2023/06/01 08:07:41;;;;;;;8.43;1.95;;;13.50;99.90;;;;;;5018964;28;20175;-79
2023/06/01 08:10:10;;;;;;;5.00;2.45;;;13.50;99.90;;;;;;5020072;28;20051;-79
2023/06/01 08:12:36;;;;;;;8.35;1.92;;;13.50;99.90;;;;;;5021270;28;20049;-78
2023/06/01 08:15:03;;;;;;;5.13;1.90;;;13.60;99.90;;;;;;5024029;28;20484;-79
2023/06/01 08:17:29;;;;;;;5.50;1.48;;;13.60;99.90;;;;;;5023774;28;20591;-78
2023/06/01 08:19:56;;;;;;;1.85;1.38;;;13.60;99.90;;;;;;5024846;28;20044;-79
2023/06/01 08:22:23;;;;;;;4.50;1.52;;;13.70;99.90;;;;;;5019589;28;20037;-79
2023/06/01 08:24:51;;;;;;;12.70;2.03;;;13.70;99.90;;;;;;5018326;28;20171;-79
2023/06/01 08:27:22;;;;;;;8.27;1.92;;;13.80;99.90;;;;;;5018594;28;20049;-78
2023/06/01 08:29:48;;;;;;;12.13;2.58;;;13.80;99.90;;;;;;5020128;28;20087;-78
2023/06/01 08:32:14;;;;;;;4.70;1.15;;;13.90;99.90;;;;;;5006085;28;20396;-78
2023/06/01 08:34:40;;;;;;;5.88;1.73;;;14.00;99.90;;;;;;5022510;28;20056;-78
2023/06/01 08:37:06;;;;;;;6.63;1.15;;;13.90;99.90;;;;;;5016341;28;20676;-78
2023/06/01 08:39:31;;;;;;;7.68;1.88;;;13.90;99.90;;;;;;5018978;28;20111;-78
2023/06/01 08:42:08;;;;;;;8.15;0.90;;;14.00;99.90;;;;;;5018330;28;20661;-79
2023/06/01 08:44:39;;;;;;;2.55;0.75;;;14.00;99.90;;;;;;5021313;28;20041;-79
2023/06/01 08:47:07;;;;;;;4.05;1.17;;;14.00;99.90;;;;;;5020816;28;20065;-79
2023/06/01 08:49:34;;;;;;;6.57;1.25;;;14.00;99.90;;;;;;5042773;28;20064;-79
2023/06/01 08:52:06;;;;;;;3.13;1.00;;;14.10;99.90;;;;;;5030627;28;20052;-79
2023/06/01 08:54:32;;;;;;;4.75;1.17;;;14.00;99.90;;;;;;5029463;28;20412;-78
2023/06/01 08:57:04;;;;;;;7.00;1.05;;;14.00;99.90;;;;;;5022279;28;20512;-78
2023/06/01 08:59:31;;;;;;;6.88;1.80;;;14.10;99.90;;;;;;5021409;28;20383;-78
2023/06/01 09:01:58;;;;;;;4.25;1.20;;;14.20;99.90;;;;;;5023590;28;20069;-78
2023/06/01 09:04:23;;;;;;;4.68;1.65;;;14.30;99.90;;;;;;5021025;28;20044;-77
2023/06/01 09:06:49;;;;;;;4.78;1.05;;;14.40;99.90;;;;;;5022108;28;20071;-78
2023/06/01 09:09:15;;;;;;;4.28;1.60;;;14.50;99.90;;;;;;5023760;28;20044;-78
2023/06/01 09:11:40;;;;;;;5.75;0.50;;;14.50;99.90;;;;;;5022685;28;20032;-78
2023/06/01 09:14:23;;;;;;;2.55;0.38;;;14.50;99.90;;;;;;5027940;28;21525;-78
2023/06/01 09:16:49;;;;;;;1.42;0.30;;;14.50;99.90;;;;;;5031590;28;20565;-79
2023/06/01 09:19:15;;;;;;;5.88;0.40;;;14.50;99.90;;;;;;5030167;28;20037;-79
2023/06/01 09:21:56;;;;;;;1.55;0.52;;;14.50;99.90;;;;;;5028996;28;20041;-79
2023/06/01 09:24:22;;;;;;;2.38;0.50;;;14.30;99.90;;;;;;5023274;28;20073;-79
2023/06/01 09:26:51;;;;;;;2.72;0.50;;;14.40;99.90;;;;;;5025209;28;20199;-79
2023/06/01 09:29:17;;;;;;;0.80;0.40;;;14.40;99.90;;;;;;5024807;28;20111;-79
2023/06/01 09:31:45;;;;;;;1.45;0.30;;;14.30;99.90;;;;;;5006354;28;20480;-79
2023/06/01 09:34:19;;;;;;;1.83;0.30;;;14.30;99.90;;;;;;5022675;28;20045;-79
2023/06/01 09:36:49;;;;;;;1.00;0.32;;;14.30;99.90;;;;;;5021604;28;20513;-79
2023/06/01 09:39:20;;;;;;;3.53;0.60;;;14.30;99.90;;;;;;5024733;28;20037;-79
2023/06/01 09:41:59;;;;;;;3.40;0.63;;;14.40;99.90;;;;;;5025118;28;20033;-78
2023/06/01 09:44:32;;;;;;;4.25;1.02;;;14.40;99.90;;;;;;5023369;28;20115;-78
2023/06/01 09:47:02;;;;;;;3.75;1.02;;;14.40;99.90;;;;;;5021031;28;20258;-79
2023/06/01 09:49:37;;;;;;;3.17;0.90;;;14.30;99.90;;;;;;5020861;28;20040;-79
2023/06/01 09:52:05;;;;;;;5.90;1.77;;;14.30;99.90;;;;;;5022944;28;20543;-78
2023/06/01 09:54:33;;;;;;;5.80;1.73;;;14.30;99.90;;;;;;5022135;28;20048;-77
2023/06/01 09:57:00;;;;;;;11.68;2.30;;;14.30;99.90;;;;;;5016637;28;20052;-77
2023/06/01 09:59:30;;;;;;;6.70;1.63;;;14.20;99.90;;;;;;5021807;28;20153;-79
2023/06/01 10:01:58;;;;;;;8.18;2.75;;;14.30;99.90;;;;;;5022438;28;20056;-79
2023/06/01 10:04:28;;;;;;;6.38;1.80;;;14.10;99.90;;;;;;5023992;28;20028;-78
2023/06/01 10:06:56;;;;;;;6.93;2.00;;;14.20;99.90;;;;;;5020276;28;20049;-78
2023/06/01 10:09:24;;;;;;;10.85;1.95;;;14.10;99.90;;;;;;5021990;28;20037;-78
2023/06/01 10:11:54;;;;;;;4.80;2.10;;;14.10;99.90;;;;;;5026089;28;20400;-78
2023/06/01 10:14:25;;;;;;;7.57;1.80;;;14.10;99.90;;;;;;5002185;28;20117;-78
2023/06/01 10:16:53;;;;;;;6.38;1.83;;;14.10;99.90;;;;;;5022076;28;20101;-80
2023/06/01 10:19:20;;;;;;;9.45;2.28;;;14.20;99.90;;;;;;5021740;28;20124;-80
2023/06/01 10:21:46;;;;;;;8.27;1.85;;;14.30;99.90;;;;;;5022026;28;20060;-79
2023/06/01 10:24:40;;;;;;;14.88;2.00;;;14.30;99.90;;;;;;5026102;28;20038;-80
2023/06/01 10:27:15;;;;;;;9.82;1.70;;;14.30;99.90;;;;;;5009377;28;20083;-79
2023/06/01 10:29:44;;;;;;;11.23;2.40;;;14.30;99.90;;;;;;5020662;28;20099;-79
2023/06/01 10:32:42;;;;;;;10.68;1.92;;;14.40;99.90;;;;;;5023179;28;20601;-80
2023/06/01 10:35:10;;;;;;;9.13;2.17;;;14.40;99.90;;;;;;5028982;28;20060;-80
2023/06/01 10:37:36;;;;;;;8.40;2.03;;;14.40;99.90;;;;;;5027274;28;20096;-80
2023/06/01 10:40:23;;;;;;;10.25;2.75;;;14.50;99.90;;;;;;5028736;28;20036;-80
2023/06/01 10:42:49;;;;;;;6.43;2.00;;;14.40;99.90;;;;;;5026616;28;20042;-79
2023/06/01 10:45:33;;;;;;;9.07;2.08;;;14.50;99.90;;;;;;5024592;28;20472;-79
2023/06/01 10:48:00;;;;;;;12.27;2.67;;;14.50;99.90;;;;;;5024282;28;20072;-79
2023/06/01 10:50:26;;;;;;;7.65;1.95;;;14.50;99.90;;;;;;5030402;28;20053;-80
2023/06/01 10:52:55;;;;;;;14.32;2.63;;;14.50;99.90;;;;;;5026113;28;20393;-79
2023/06/01 10:55:26;;;;;;;10.80;1.92;;;14.50;99.90;;;;;;5026487;28;20037;-79
2023/06/01 10:58:22;;;;;;;9.90;2.65;;;14.50;99.90;;;;;;5027707;28;20132;-79
2023/06/01 11:00:48;;;;;;;6.72;1.90;;;14.60;99.90;;;;;;5031845;28;20398;-80
2023/06/01 11:03:14;;;;;;;11.07;2.35;;;14.60;99.90;;;;;;5029512;28;20495;-79
2023/06/01 11:05:43;;;;;;;7.82;1.42;;;14.60;99.90;;;;;;5029967;28;20041;-79
2023/06/01 11:08:29;;;;;;;8.32;1.50;;;14.90;99.90;;;;;;5023014;28;20484;-79
2023/06/01 11:11:00;;;;;;;5.72;1.63;;;14.70;99.90;;;;;;5027141;28;20053;-78
2023/06/01 11:13:27;;;;;;;8.50;1.70;;;14.80;99.90;;;;;;5027567;28;20052;-79
2023/06/01 11:16:14;;;;;;;9.30;2.33;;;14.80;99.90;;;;;;5022024;28;20053;-78
2023/06/01 11:18:59;;;;;;;7.63;1.88;;;14.80;99.90;;;;;;5022422;28;20053;-78
2023/06/01 11:21:29;;;;;;;9.77;1.40;;;14.90;99.90;;;;;;5023020;28;20055;-79
2023/06/01 11:23:56;;;;;;;6.88;1.58;;;14.90;99.90;;;;;;5025106;28;20041;-79
2023/06/01 11:26:28;;;;;;;9.18;2.00;;;15.00;99.90;;;;;;5026089;28;20079;-78
2023/06/01 11:29:15;;;;;;;9.88;2.55;;;15.10;99.90;;;;;;5023348;28;20064;-79
2023/06/01 11:31:59;;;;;;;8.00;1.42;;;15.10;99.90;;;;;;5022541;28;20042;-79
2023/06/01 11:34:34;;;;;;;8.32;1.35;;;15.20;99.90;;;;;;5023884;28;20037;-78
2023/06/01 11:37:01;;;;;;;;;;;15.40;99.90;;;;;;5021851;28;20790;-78
2023/06/01 11:39:28;;;;;;;10.23;1.60;;;15.40;99.90;;;;;;5020543;28;19925;-79
2023/06/01 11:42:08;;;;;;;7.10;2.33;;;15.50;99.90;;;;;;5022168;28;20510;-79
2023/06/01 11:44:37;;;;;;;9.63;1.67;;;15.60;99.90;;;;;;5022761;28;20041;-79
2023/06/01 11:47:05;;;;;;;6.00;1.23;;;15.70;99.90;;;;;;5020579;28;20041;-79
2023/06/01 11:49:39;;;;;;;10.73;2.72;;;15.80;99.90;;;;;;5023421;28;20045;-78
2023/06/01 11:52:09;;;;;;;6.78;1.52;;;15.90;99.90;;;;;;5010870;28;20052;-79
2023/06/01 11:54:36;;;;;;;9.95;1.30;;;15.80;99.90;;;;;;5030017;28;20037;-79
2023/06/01 11:57:02;;;;;;;5.90;1.52;;;16.00;99.90;;;;;;5030475;28;20709;-79
2023/06/01 11:59:40;;;;;;;9.40;2.55;;;16.00;99.90;;;;;;5028041;28;20487;-79
2023/06/01 12:02:20;;;;;;;9.60;1.83;;;16.00;99.90;;;;;;5026024;28;20048;-79
2023/06/01 12:04:58;;;;;;;7.70;1.90;;;15.90;99.90;;;;;;5026767;28;20090;-78
2023/06/01 12:07:24;;;;;;;9.63;1.90;;;15.90;99.90;;;;;;5027205;28;20160;-79
2023/06/01 12:09:53;;;;;;;10.40;2.85;;;15.90;99.90;;;;;;5028928;28;20420;-78
2023/06/01 12:12:21;;;;;;;7.72;2.05;;;15.90;99.90;;;;;;5027064;28;20035;-78
2023/06/01 12:14:49;;;;;;;8.50;2.67;;;15.90;99.90;;;;;;5028611;28;20121;-79
2023/06/01 12:17:14;;;;;;;5.63;1.50;;;15.90;99.90;;;;;;5028853;28;20161;-79
2023/06/01 12:19:47;;;;;;;9.15;1.75;;;16.00;99.90;;;;;;5029484;28;20124;-79
2023/06/01 12:22:14;;;;;;;9.35;1.65;;;15.90;99.90;;;;;;5030062;28;20041;-79
2023/06/01 12:24:41;;;;;;;4.53;1.23;;;15.80;99.90;;;;;;5029788;28;20452;-79
2023/06/01 12:27:19;;;;;;;6.15;1.75;;;15.80;99.90;;;;;;5028769;28;20558;-78
2023/06/01 12:29:47;;;;;;;5.50;1.35;;;15.80;99.90;;;;;;5029730;28;20033;-79
2023/06/01 12:32:17;;;;;;;8.05;1.88;;;15.80;99.90;;;;;;5029132;28;20131;-80
2023/06/01 12:34:47;;;;;;;5.68;1.27;;;15.90;99.90;;;;;;5029419;28;20091;-79
2023/06/01 12:37:14;;;;;;;6.72;1.52;;;15.90;99.90;;;;;;5023639;28;20404;-80
2023/06/01 12:39:41;;;;;;;5.20;1.88;;;15.80;99.90;;;;;;5028685;28;20045;-79
2023/06/01 12:42:08;;;;;;;8.05;1.60;;;15.90;99.90;;;;;;5030664;28;20041;-78
2023/06/01 12:44:33;;;;;;;6.65;1.45;;;15.90;99.90;;;;;;5029790;28;20042;-79
2023/06/01 12:47:00;;;;;;;5.95;1.65;;;16.00;99.90;;;;;;5027554;28;20033;-79
2023/06/01 12:49:27;;;;;;;6.55;1.95;;;15.90;99.90;;;;;;5024808;28;20077;-79